createdAt,value
2022-10-21T00:01:51.531Z,21.87
2022-10-21T00:04:18.261Z,23.60
2022-10-21T00:06:46.635Z,23.77
2022-10-21T00:09:13.399Z,24.50
2022-10-21T00:11:40.179Z,24.50
2022-10-21T00:14:06.903Z,24.90
2022-10-21T00:16:33.664Z,27.97
2022-10-21T00:19:00.531Z,25.00
2022-10-21T00:21:27.254Z,24.13
2022-10-21T00:23:54.530Z,23.90
2022-10-21T00:26:21.305Z,22.50
2022-10-21T00:28:47.998Z,24.67
2022-10-21T00:31:15.633Z,23.97
2022-10-21T00:33:45.075Z,24.37
2022-10-21T00:36:15.574Z,24.40
2022-10-21T00:38:44.644Z,21.33
2022-10-21T00:41:12.740Z,21.63
2022-10-21T00:44:03.052Z,20.47
2022-10-21T00:46:47.813Z,20.93
2022-10-21T00:49:42.579Z,20.03
2022-10-21T00:52:16.980Z,22.07
2022-10-21T00:54:45.636Z,19.80
2022-10-21T00:57:12.736Z,19.47
2022-10-21T00:59:44.403Z,20.30
2022-10-21T01:02:11.283Z,18.43
2022-10-21T01:04:38.172Z,19.80
2022-10-21T01:07:05.807Z,20.50
2022-10-21T01:09:32.712Z,20.43
2022-10-21T01:12:01.861Z,20.67
2022-10-21T01:14:51.092Z,20.27
2022-10-21T01:17:52.228Z,19.80
2022-10-21T01:20:23.973Z,20.13
2022-10-21T01:23:18.505Z,21.57
2022-10-21T01:26:22.775Z,20.53
2022-10-21T01:29:17.207Z,18.33
2022-10-21T01:31:50.615Z,20.03
2022-10-21T01:34:28.567Z,20.27
2022-10-21T01:37:02.812Z,19.17
2022-10-21T01:39:40.123Z,19.80
2022-10-21T01:42:32.556Z,18.53
2022-10-21T01:45:37.015Z,20.50
2022-10-21T01:48:09.534Z,19.40
2022-10-21T01:50:44.919Z,21.43
2022-10-21T01:53:14.011Z,22.37
2022-10-21T01:55:41.734Z,19.57
2022-10-21T01:58:14.571Z,17.93
2022-10-21T02:00:42.435Z,19.80
2022-10-21T02:03:13.754Z,20.57
2022-10-21T02:05:40.655Z,20.37
2022-10-21T02:08:07.467Z,20.17
2022-10-21T02:10:38.961Z,21.40
2022-10-21T02:13:09.300Z,20.80
2022-10-21T02:15:38.037Z,19.13
2022-10-21T02:18:17.536Z,20.27
2022-10-21T02:20:45.660Z,19.40
2022-10-21T02:23:15.708Z,19.50
2022-10-21T02:25:46.107Z,22.40
2022-10-21T02:28:13.920Z,20.10
2022-10-21T02:31:11.971Z,19.47
2022-10-21T02:33:44.524Z,20.40
2022-10-21T02:36:43.646Z,22.00
2022-10-21T02:39:21.072Z,20.50
2022-10-21T02:41:49.067Z,19.97
2022-10-21T02:44:16.494Z,22.27
2022-10-21T02:46:44.918Z,20.50
2022-10-21T02:49:11.942Z,20.80
2022-10-21T02:51:40.068Z,21.60
2022-10-21T02:54:07.800Z,20.40
2022-10-21T02:56:35.374Z,21.03
2022-10-21T02:59:02.109Z,21.13
2022-10-21T03:01:29.039Z,21.00
2022-10-21T03:03:55.840Z,19.17
2022-10-21T03:06:22.574Z,20.07
2022-10-21T03:08:52.171Z,19.83
2022-10-21T03:11:18.876Z,21.70
2022-10-21T03:13:45.625Z,21.20
2022-10-21T03:16:12.355Z,19.93
2022-10-21T03:18:39.100Z,19.97
2022-10-21T03:21:06.067Z,20.57
2022-10-21T03:23:32.756Z,25.70
2022-10-21T03:25:59.532Z,21.50
2022-10-21T03:28:26.239Z,23.77
2022-10-21T03:30:54.480Z,23.30
2022-10-21T03:33:21.211Z,20.83
2022-10-21T03:35:47.970Z,24.60
2022-10-21T03:38:14.724Z,22.50
2022-10-21T03:40:41.474Z,23.10
2022-10-21T03:43:08.175Z,21.30
2022-10-21T03:45:34.855Z,20.13
2022-10-21T03:48:01.649Z,21.70
2022-10-21T03:50:28.502Z,21.30
2022-10-21T03:52:55.538Z,22.23
2022-10-21T03:55:24.285Z,24.30
2022-10-21T03:57:51.760Z,20.97
2022-10-21T04:00:19.249Z,21.90
2022-10-21T04:02:46.060Z,21.50
2022-10-21T04:05:12.965Z,23.80
2022-10-21T04:07:39.797Z,21.27
2022-10-21T04:10:07.600Z,22.50
2022-10-21T04:12:35.133Z,21.57
2022-10-21T04:15:02.374Z,21.77
2022-10-21T04:17:29.138Z,21.17
2022-10-21T04:19:55.845Z,20.70
2022-10-21T04:22:22.575Z,20.93
2022-10-21T04:24:49.322Z,23.17
2022-10-21T04:27:16.085Z,22.03
2022-10-21T04:29:42.823Z,22.60
2022-10-21T04:32:09.847Z,23.90
2022-10-21T04:34:36.538Z,22.73
2022-10-21T04:37:05.064Z,24.00
2022-10-21T04:39:32.254Z,22.53
2022-10-21T04:41:59.155Z,19.27
2022-10-21T04:44:26.046Z,21.80
2022-10-21T04:46:52.884Z,19.13
2022-10-21T04:49:19.634Z,20.17
2022-10-21T04:51:46.353Z,18.60
2022-10-21T04:54:13.648Z,21.30
2022-10-21T04:56:41.603Z,19.60
2022-10-21T04:59:08.664Z,21.70
2022-10-21T05:01:35.372Z,20.30
2022-10-21T05:04:02.057Z,19.80
2022-10-21T05:06:28.781Z,18.93
2022-10-21T05:08:55.623Z,18.87
2022-10-21T05:11:22.528Z,22.27
2022-10-21T05:13:49.313Z,20.63
2022-10-21T05:16:16.051Z,20.23
2022-10-21T05:18:42.866Z,18.80
2022-10-21T05:21:09.614Z,16.97
2022-10-21T05:23:36.354Z,16.33
2022-10-21T05:26:03.057Z,16.43
2022-10-21T05:28:29.950Z,14.70
2022-10-21T05:30:56.773Z,16.37
2022-10-21T05:33:23.628Z,15.43
2022-10-21T05:36:01.841Z,14.23
2022-10-21T05:38:29.388Z,15.63
2022-10-21T05:40:56.140Z,13.20
2022-10-21T05:43:23.665Z,14.60
2022-10-21T05:45:50.561Z,15.37
2022-10-21T05:48:20.365Z,13.97
2022-10-21T05:50:47.410Z,13.73
2022-10-21T05:53:14.559Z,13.00
2022-10-21T05:55:41.292Z,14.03
2022-10-21T05:58:08.144Z,13.07
2022-10-21T06:00:35.343Z,13.43
2022-10-21T06:03:02.306Z,13.50
2022-10-21T06:05:29.025Z,12.30
2022-10-21T06:07:55.698Z,12.60
2022-10-21T06:10:26.716Z,12.77
2022-10-21T06:12:55.833Z,11.73
2022-10-21T06:15:22.587Z,16.33
2022-10-21T06:17:49.286Z,16.60
2022-10-21T06:20:16.075Z,17.33
2022-10-21T06:22:42.799Z,17.00
2022-10-21T06:25:09.526Z,15.53
2022-10-21T06:27:36.526Z,14.90
2022-10-21T06:30:03.800Z,18.00
2022-10-21T06:32:31.468Z,16.73
2022-10-21T06:34:58.227Z,14.40
2022-10-21T06:37:25.040Z,16.70
2022-10-21T06:39:51.879Z,17.50
2022-10-21T06:42:18.585Z,16.27
2022-10-21T06:44:45.316Z,14.80
2022-10-21T06:47:12.115Z,15.97
2022-10-21T06:49:38.917Z,15.47
2022-10-21T06:52:05.643Z,15.03
2022-10-21T06:54:32.467Z,15.03
2022-10-21T06:56:59.168Z,14.83
2022-10-21T06:59:25.964Z,16.40
2022-10-21T07:02:00.169Z,17.97
2022-10-21T07:04:27.922Z,18.50
2022-10-21T07:06:54.709Z,16.57
2022-10-21T07:09:21.553Z,15.83
2022-10-21T07:11:48.340Z,17.50
2022-10-21T07:14:15.154Z,16.40
2022-10-21T07:16:42.140Z,17.97
2022-10-21T07:19:10.392Z,16.07
2022-10-21T07:21:37.081Z,18.67
2022-10-21T07:24:04.030Z,15.60
2022-10-21T07:26:32.677Z,15.13
2022-10-21T07:29:00.913Z,17.23
2022-10-21T07:31:30.865Z,17.40
2022-10-21T07:33:58.811Z,16.97
2022-10-21T07:36:28.259Z,14.87
2022-10-21T07:38:57.601Z,13.37
2022-10-21T07:41:49.359Z,15.67
2022-10-21T07:44:17.437Z,15.87
2022-10-21T07:46:45.961Z,15.83
2022-10-21T07:49:13.515Z,15.53
2022-10-21T07:51:40.987Z,16.83
2022-10-21T07:54:08.239Z,15.50
2022-10-21T07:56:38.654Z,15.77
2022-10-21T07:59:10.221Z,15.63
2022-10-21T08:01:41.565Z,24.27
2022-10-21T08:04:09.730Z,20.27
2022-10-21T08:06:36.749Z,19.80
2022-10-21T08:09:04.495Z,17.50
2022-10-21T08:11:33.627Z,18.43
2022-10-21T08:14:00.801Z,16.00
2022-10-21T08:16:27.803Z,20.33
2022-10-21T08:18:55.564Z,20.40
2022-10-21T08:21:22.461Z,19.60
2022-10-21T08:23:49.292Z,19.93
2022-10-21T08:26:16.834Z,19.10
2022-10-21T08:28:44.224Z,17.90
2022-10-21T08:31:16.509Z,17.67
2022-10-21T08:33:43.743Z,24.67
2022-10-21T08:36:17.236Z,22.27
2022-10-21T08:38:44.492Z,19.00
2022-10-21T08:41:18.672Z,31.30
2022-10-21T08:43:45.466Z,24.03
2022-10-21T08:46:17.159Z,18.93
2022-10-21T08:48:49.435Z,18.03
2022-10-21T08:51:29.050Z,17.40
2022-10-21T08:53:59.917Z,18.97
2022-10-21T08:56:27.299Z,16.10
2022-10-21T08:58:55.182Z,16.27
2022-10-21T09:01:46.713Z,14.63
2022-10-21T09:04:26.910Z,15.10
2022-10-21T09:06:59.015Z,14.77
2022-10-21T09:09:52.056Z,12.90
2022-10-21T09:12:49.746Z,14.17
2022-10-21T09:15:27.412Z,13.13
2022-10-21T09:18:07.710Z,11.07
2022-10-21T09:20:56.192Z,9.30
2022-10-21T09:23:45.664Z,9.00
2022-10-21T09:26:21.240Z,11.03
2022-10-21T09:28:48.663Z,15.20
2022-10-21T09:31:19.470Z,12.50
2022-10-21T09:34:01.891Z,11.00
2022-10-21T09:36:36.413Z,10.10
2022-10-21T09:39:05.986Z,11.00
2022-10-21T09:41:38.880Z,9.10
2022-10-21T09:44:05.631Z,10.47
2022-10-21T09:46:32.431Z,10.30
2022-10-21T09:49:36.418Z,11.23
2022-10-21T09:51:46.732Z,11.77
2022-10-21T09:54:17.971Z,9.77
2022-10-21T09:56:54.757Z,10.00
2022-10-21T09:59:23.511Z,10.50
2022-10-21T10:01:50.336Z,9.70
2022-10-21T10:04:31.986Z,8.57
2022-10-21T10:07:19.382Z,8.17
2022-10-21T10:09:47.876Z,7.07
2022-10-21T10:12:22.373Z,6.83
2022-10-21T10:14:49.675Z,6.90
2022-10-21T10:17:23.895Z,5.90
2022-10-21T10:20:08.636Z,6.13
2022-10-21T10:22:37.723Z,5.50
2022-10-21T10:25:17.843Z,4.80
2022-10-21T10:27:59.440Z,7.03
2022-10-21T10:30:36.960Z,10.70
2022-10-21T10:33:17.407Z,8.60
2022-10-21T10:35:57.619Z,9.27
2022-10-21T10:38:51.806Z,5.83
2022-10-21T10:41:18.912Z,4.87
2022-10-21T10:43:53.848Z,4.50
2022-10-21T10:46:25.040Z,4.90
2022-10-21T10:48:53.221Z,5.03
2022-10-21T10:51:27.825Z,4.93
2022-10-21T10:54:01.225Z,4.17
2022-10-21T10:56:43.955Z,4.83
2022-10-21T10:59:23.519Z,4.70
2022-10-21T11:02:21.797Z,4.77
2022-10-21T11:05:09.279Z,3.80
2022-10-21T11:07:44.691Z,4.30
2022-10-21T11:10:30.272Z,4.23
2022-10-21T11:12:58.311Z,3.70
2022-10-21T11:15:36.515Z,2.80
2022-10-21T11:18:26.104Z,3.70
2022-10-21T11:21:01.228Z,2.80
2022-10-21T11:23:30.768Z,3.80
2022-10-21T11:26:12.605Z,2.93
2022-10-21T11:29:03.516Z,2.37
2022-10-21T11:32:10.296Z,2.07
2022-10-21T11:35:08.123Z,2.30
2022-10-21T11:37:56.164Z,2.00
2022-10-21T11:40:46.472Z,2.10
2022-10-21T11:43:34.079Z,2.50
2022-10-21T11:46:03.742Z,1.97
2022-10-21T11:48:30.497Z,2.53
2022-10-21T11:51:40.544Z,1.77
2022-10-21T11:54:14.372Z,1.83
2022-10-21T11:56:59.247Z,1.87
2022-10-21T12:00:00.283Z,2.03
2022-10-21T12:02:42.483Z,1.80
2022-10-21T12:05:26.108Z,2.00
2022-10-21T12:08:21.883Z,2.30
2022-10-21T12:11:36.231Z,1.93
2022-10-21T12:14:40.388Z,2.47
2022-10-21T12:17:12.380Z,1.70
2022-10-21T12:19:39.213Z,2.00
2022-10-21T12:22:07.497Z,1.80
2022-10-21T12:24:40.172Z,1.30
2022-10-21T12:27:37.890Z,2.30
2022-10-21T12:30:12.890Z,2.00
2022-10-21T12:32:39.624Z,1.40
2022-10-21T12:35:15.818Z,1.50
2022-10-21T12:38:05.919Z,1.47
2022-10-21T12:40:33.181Z,1.43
2022-10-21T12:43:02.609Z,1.43
2022-10-21T12:45:39.168Z,1.63
2022-10-21T12:48:45.294Z,1.27
2022-10-21T12:51:29.555Z,1.90
2022-10-21T12:54:08.957Z,1.50
2022-10-21T12:56:43.849Z,1.83
2022-10-21T12:59:27.894Z,2.73
2022-10-21T13:02:07.814Z,1.70
2022-10-21T13:04:34.554Z,2.33
2022-10-21T13:07:21.188Z,1.80
2022-10-21T13:09:56.582Z,1.90
2022-10-21T13:12:23.269Z,1.70
2022-10-21T13:14:55.859Z,2.20
2022-10-21T13:17:22.514Z,2.17
2022-10-21T13:20:16.740Z,2.07
2022-10-21T13:23:01.879Z,2.20
2022-10-21T13:25:34.594Z,2.63
2022-10-21T13:28:17.104Z,1.87
2022-10-21T13:30:49.880Z,1.80
2022-10-21T13:33:20.387Z,1.27
2022-10-21T13:35:50.863Z,2.60
2022-10-21T13:38:33.482Z,1.80
2022-10-21T13:41:03.111Z,2.17
2022-10-21T13:43:39.552Z,5.03
2022-10-21T13:46:08.125Z,2.60
2022-10-21T13:48:44.416Z,2.90
2022-10-21T13:51:29.072Z,1.60
2022-10-21T13:54:00.231Z,3.37
2022-10-21T13:56:33.375Z,2.43
2022-10-21T13:59:01.115Z,1.60
2022-10-21T14:01:30.817Z,1.90
2022-10-21T14:04:14.598Z,2.37
2022-10-21T14:06:51.170Z,3.27
2022-10-21T14:09:23.702Z,2.43
2022-10-21T14:12:00.034Z,1.63
2022-10-21T14:14:28.851Z,1.80
2022-10-21T14:17:01.773Z,2.17
2022-10-21T14:19:32.125Z,1.63
2022-10-21T14:22:00.916Z,2.83
2022-10-21T14:24:49.817Z,1.87
2022-10-21T14:27:20.325Z,1.60
2022-10-21T14:29:47.799Z,1.60
2022-10-21T14:32:17.118Z,1.53
2022-10-21T14:35:08.776Z,1.40
2022-10-21T14:37:42.837Z,1.73
2022-10-21T14:40:21.841Z,1.87
2022-10-21T14:42:53.167Z,1.77
2022-10-21T14:45:43.883Z,2.50
2022-10-21T14:48:43.012Z,1.80
2022-10-21T14:51:15.261Z,2.27
2022-10-21T14:53:59.888Z,1.90
2022-10-21T14:56:40.430Z,2.00
2022-10-21T14:59:24.281Z,1.80
2022-10-21T15:01:51.656Z,1.93
2022-10-21T15:05:03.450Z,45.13
2022-10-21T15:07:34.688Z,9.07
2022-10-21T15:10:04.367Z,4.00
2022-10-21T15:12:50.421Z,1.80
2022-10-21T15:15:48.218Z,1.90
2022-10-21T15:18:25.122Z,1.57
2022-10-21T15:20:54.753Z,1.93
2022-10-21T15:23:29.110Z,3.10
2022-10-21T15:26:09.040Z,3.50
2022-10-21T15:28:36.555Z,4.07
2022-10-21T15:31:17.221Z,3.30
2022-10-21T15:33:44.534Z,2.40
2022-10-21T15:36:14.530Z,2.40
2022-10-21T15:38:46.845Z,2.57
2022-10-21T15:41:14.859Z,2.77
2022-10-21T15:43:43.104Z,2.93
2022-10-21T15:46:11.884Z,2.80
2022-10-21T15:48:38.684Z,2.50
2022-10-21T15:51:05.604Z,2.60
2022-10-21T15:53:32.380Z,2.30
2022-10-21T15:56:01.107Z,2.17
2022-10-21T15:58:27.926Z,2.43
2022-10-21T16:00:54.779Z,2.40
2022-10-21T16:03:22.816Z,1.77
2022-10-21T16:05:50.341Z,2.20
2022-10-21T16:08:17.059Z,1.90
2022-10-21T16:10:47.719Z,2.40
2022-10-21T16:13:14.991Z,1.77
2022-10-21T16:15:41.746Z,1.60
2022-10-21T16:18:14.245Z,2.27
2022-10-21T16:20:42.688Z,1.60
2022-10-21T16:23:10.603Z,2.63
2022-10-21T16:25:37.319Z,2.30
2022-10-21T16:28:04.913Z,2.50
2022-10-21T16:30:39.037Z,1.90
2022-10-21T16:33:06.199Z,1.87
2022-10-21T16:35:32.916Z,2.30
2022-10-21T16:37:59.671Z,3.33
2022-10-21T16:40:31.579Z,3.07
2022-10-21T16:42:58.419Z,2.50
2022-10-21T16:45:29.294Z,2.53
2022-10-21T16:47:59.355Z,2.30
2022-10-21T16:50:40.708Z,2.47
2022-10-21T16:53:12.676Z,2.47
2022-10-21T16:55:39.391Z,2.10
2022-10-21T16:58:06.098Z,2.13
2022-10-21T17:00:32.912Z,2.30
2022-10-21T17:03:00.257Z,2.97
2022-10-21T17:05:27.134Z,5.10
2022-10-21T17:07:54.748Z,5.90
2022-10-21T17:10:21.468Z,7.00
2022-10-21T17:12:48.241Z,4.70
2022-10-21T17:15:15.864Z,2.90
2022-10-21T17:17:42.754Z,3.27
2022-10-21T17:20:10.203Z,4.40
2022-10-21T17:22:36.931Z,4.27
2022-10-21T17:25:03.952Z,5.10
2022-10-21T17:27:30.739Z,4.30
2022-10-21T17:29:57.417Z,4.40
2022-10-21T17:32:24.992Z,4.47
2022-10-21T17:34:51.707Z,4.00
2022-10-21T17:37:18.544Z,4.50
2022-10-21T17:39:45.328Z,4.00
2022-10-21T17:42:17.138Z,3.30
2022-10-21T17:44:44.612Z,3.33
2022-10-21T17:47:11.737Z,2.90
2022-10-21T17:49:39.078Z,3.30
2022-10-21T17:52:05.783Z,3.70
2022-10-21T17:54:35.435Z,3.37
2022-10-21T17:57:03.212Z,3.73
2022-10-21T17:59:32.635Z,4.30
2022-10-21T18:02:00.039Z,3.67
2022-10-21T18:04:26.874Z,4.23
2022-10-21T18:06:54.236Z,5.67
2022-10-21T18:09:21.053Z,5.50
2022-10-21T18:11:47.906Z,6.30
2022-10-21T18:14:14.724Z,4.50
2022-10-21T18:16:41.472Z,5.17
2022-10-21T18:19:08.203Z,4.30
2022-10-21T18:21:34.945Z,7.50
2022-10-21T18:24:01.665Z,6.27
2022-10-21T18:26:30.896Z,5.20
2022-10-21T18:29:02.808Z,5.53
2022-10-21T18:31:32.886Z,5.43
2022-10-21T18:34:01.513Z,5.03
2022-10-21T18:36:28.752Z,4.57
2022-10-21T18:38:55.453Z,5.03
2022-10-21T18:41:22.601Z,6.30
2022-10-21T18:43:56.487Z,7.20
2022-10-21T18:46:23.818Z,6.93
2022-10-21T18:48:50.987Z,5.37
2022-10-21T18:51:22.697Z,6.07
2022-10-21T18:53:52.854Z,6.70
2022-10-21T18:56:21.775Z,4.50
2022-10-21T18:58:48.775Z,3.80
2022-10-21T19:01:16.224Z,3.70
2022-10-21T19:03:43.296Z,3.30
2022-10-21T19:06:28.022Z,3.73
2022-10-21T19:08:55.115Z,2.87
2022-10-21T19:11:22.021Z,3.60
2022-10-21T19:13:48.761Z,3.87
2022-10-21T19:16:15.544Z,3.50
2022-10-21T19:18:42.331Z,4.93
2022-10-21T19:21:09.176Z,4.00
2022-10-21T19:23:35.933Z,5.30
2022-10-21T19:26:07.921Z,4.37
2022-10-21T19:28:35.774Z,4.20
2022-10-21T19:31:03.068Z,4.07
2022-10-21T19:33:30.820Z,3.37
2022-10-21T19:36:01.883Z,3.80
2022-10-21T19:38:43.261Z,3.00
2022-10-21T19:41:15.567Z,3.30
2022-10-21T19:43:42.565Z,3.23
2022-10-21T19:46:14.361Z,3.40
2022-10-21T19:48:41.139Z,2.63
2022-10-21T19:51:14.473Z,3.10
2022-10-21T19:53:42.264Z,2.43
2022-10-21T19:56:09.220Z,2.43
2022-10-21T19:58:39.443Z,3.20
2022-10-21T20:01:11.885Z,3.80
2022-10-21T20:03:40.731Z,3.50
2022-10-21T20:06:09.932Z,2.70
2022-10-21T20:08:38.526Z,3.33
2022-10-21T20:11:08.669Z,3.23
2022-10-21T20:13:35.531Z,3.13
2022-10-21T20:16:02.355Z,2.90
2022-10-21T20:18:30.088Z,3.87
2022-10-21T20:20:57.733Z,3.97
2022-10-21T20:23:25.372Z,3.90
2022-10-21T20:25:57.720Z,3.83
2022-10-21T20:28:25.993Z,3.97
2022-10-21T20:31:04.664Z,3.53
2022-10-21T20:33:33.769Z,2.50
2022-10-21T20:36:09.930Z,3.00
2022-10-21T20:38:36.859Z,4.50
2022-10-21T20:41:09.637Z,3.80
2022-10-21T20:43:38.775Z,4.67
2022-10-21T20:46:09.211Z,3.87
2022-10-21T20:48:39.641Z,4.00
2022-10-21T20:51:21.234Z,3.07
2022-10-21T20:53:57.301Z,3.57
2022-10-21T20:56:30.510Z,2.77
2022-10-21T20:58:57.438Z,2.53
2022-10-21T21:01:27.137Z,4.33
2022-10-21T21:03:56.357Z,3.50
2022-10-21T21:06:23.241Z,4.07
2022-10-21T21:09:14.747Z,4.23
2022-10-21T21:11:36.960Z,5.60
2022-10-21T21:14:04.172Z,6.03
2022-10-21T21:16:30.976Z,6.47
2022-10-21T21:19:02.837Z,6.70
2022-10-21T21:21:31.223Z,6.50
2022-10-21T21:23:58.606Z,6.50
2022-10-21T21:26:34.408Z,6.37
2022-10-21T21:29:01.863Z,8.17
2022-10-21T21:31:31.021Z,10.17
2022-10-21T21:33:58.162Z,9.30
2022-10-21T21:36:25.172Z,8.10
2022-10-21T21:38:53.998Z,9.10
2022-10-21T21:41:22.657Z,7.83
2022-10-21T21:43:51.157Z,7.50
2022-10-21T21:46:25.419Z,5.60
2022-10-21T21:49:10.265Z,6.73
2022-10-21T21:51:37.509Z,7.30
2022-10-21T21:54:07.616Z,8.03
2022-10-21T21:56:34.722Z,7.63
2022-10-21T21:59:01.728Z,8.03
2022-10-21T22:01:29.523Z,7.57
2022-10-21T22:03:57.234Z,7.03
2022-10-21T22:08:58.792Z,6.13
2022-10-21T22:11:28.651Z,5.90
2022-10-21T22:13:55.781Z,6.40
2022-10-21T22:16:24.405Z,5.87
2022-10-21T22:18:51.305Z,5.60
2022-10-21T22:21:19.151Z,6.47
2022-10-21T22:23:47.614Z,5.77
2022-10-21T22:26:15.500Z,5.70
2022-10-21T22:28:43.119Z,5.73
2022-10-21T22:31:16.455Z,6.20
2022-10-21T22:36:16.646Z,5.63
2022-10-21T22:38:44.788Z,5.30
2022-10-21T22:41:12.748Z,5.57
2022-10-21T22:43:40.040Z,5.80
2022-10-21T22:46:21.435Z,5.77
2022-10-21T22:48:53.625Z,4.77
2022-10-21T22:51:20.372Z,4.77
2022-10-21T22:53:53.334Z,4.90
2022-10-21T22:56:23.103Z,3.87
2022-10-21T22:58:49.807Z,4.27
2022-10-21T23:01:16.552Z,4.23
2022-10-21T23:03:43.259Z,3.13
2022-10-21T23:06:10.032Z,3.30
2022-10-21T23:08:36.852Z,3.53
2022-10-21T23:11:03.888Z,3.57
2022-10-21T23:13:30.618Z,4.17
2022-10-21T23:15:57.331Z,3.90
2022-10-21T23:18:24.043Z,4.13
2022-10-21T23:20:50.786Z,4.70
2022-10-21T23:23:17.527Z,5.10
2022-10-21T23:25:44.242Z,4.80
2022-10-21T23:28:11.078Z,4.20
2022-10-21T23:30:39.267Z,4.57
2022-10-21T23:33:06.179Z,4.60
2022-10-21T23:35:33.003Z,4.57
2022-10-21T23:37:59.870Z,4.00
2022-10-21T23:40:27.087Z,3.67
2022-10-21T23:42:53.890Z,3.63
2022-10-21T23:45:20.655Z,3.20
2022-10-21T23:47:47.413Z,2.70
2022-10-21T23:50:14.257Z,2.80
2022-10-21T23:52:41.038Z,2.17
2022-10-21T23:55:08.364Z,2.10
2022-10-21T23:57:35.647Z,2.30
